sensor_id;sensor_type;location;lat;lon;timestamp;P1;durP1;ratioP1;P2;durP2;ratioP2
38581;SDS011;24349;53.720;10.014;2023-04-02T00:01:36;5.40;;;1.75;;
38581;SDS011;24349;53.720;10.014;2023-04-02T00:04:04;6.53;;;1.63;;
38581;SDS011;24349;53.720;10.014;2023-04-02T00:06:35;7.07;;;1.52;;
38581;SDS011;24349;53.720;10.014;2023-04-02T00:11:37;5.53;;;1.55;;
38581;SDS011;24349;53.720;10.014;2023-04-02T00:16:41;9.38;;;2.00;;
38581;SDS011;24349;53.720;10.014;2023-04-02T00:19:12;7.28;;;1.67;;
38581;SDS011;24349;53.720;10.014;2023-04-02T00:21:43;6.65;;;1.80;;
38581;SDS011;24349;53.720;10.014;2023-04-02T00:24:13;7.45;;;1.73;;
38581;SDS011;24349;53.720;10.014;2023-04-02T00:26:45;7.15;;;1.98;;
38581;SDS011;24349;53.720;10.014;2023-04-02T00:29:13;6.60;;;1.50;;
38581;SDS011;24349;53.720;10.014;2023-04-02T00:31:42;7.55;;;1.77;;
38581;SDS011;24349;53.720;10.014;2023-04-02T00:36:49;5.40;;;1.63;;
38581;SDS011;24349;53.720;10.014;2023-04-02T00:39:18;6.32;;;1.88;;
38581;SDS011;24349;53.720;10.014;2023-04-02T00:41:47;6.22;;;1.90;;
38581;SDS011;24349;53.720;10.014;2023-04-02T00:44:13;6.97;;;1.63;;
38581;SDS011;24349;53.720;10.014;2023-04-02T00:46:45;6.97;;;1.73;;
38581;SDS011;24349;53.720;10.014;2023-04-02T00:49:15;5.40;;;1.38;;
38581;SDS011;24349;53.720;10.014;2023-04-02T00:51:52;8.40;;;2.33;;
38581;SDS011;24349;53.720;10.014;2023-04-02T00:54:22;7.50;;;1.65;;
38581;SDS011;24349;53.720;10.014;2023-04-02T00:56:52;6.88;;;1.70;;
38581;SDS011;24349;53.720;10.014;2023-04-02T00:59:33;5.88;;;1.90;;
38581;SDS011;24349;53.720;10.014;2023-04-02T01:04:39;7.18;;;1.63;;
38581;SDS011;24349;53.720;10.014;2023-04-02T01:07:06;5.28;;;1.42;;
38581;SDS011;24349;53.720;10.014;2023-04-02T01:12:43;7.35;;;1.73;;
38581;SDS011;24349;53.720;10.014;2023-04-02T01:15:08;8.23;;;1.77;;
38581;SDS011;24349;53.720;10.014;2023-04-02T01:25:53;6.45;;;1.45;;
38581;SDS011;24349;53.720;10.014;2023-04-02T01:29:02;5.10;;;1.75;;
38581;SDS011;24349;53.720;10.014;2023-04-02T01:31:34;5.95;;;1.75;;
38581;SDS011;24349;53.720;10.014;2023-04-02T01:34:02;6.82;;;1.80;;
38581;SDS011;24349;53.720;10.014;2023-04-02T01:42:19;5.93;;;1.92;;
38581;SDS011;24349;53.720;10.014;2023-04-02T01:44:48;5.53;;;1.50;;
38581;SDS011;24349;53.720;10.014;2023-04-02T01:47:20;8.02;;;2.13;;
38581;SDS011;24349;53.720;10.014;2023-04-02T01:49:51;7.15;;;1.52;;
38581;SDS011;24349;53.720;10.014;2023-04-02T01:52:25;5.93;;;1.50;;
38581;SDS011;24349;53.720;10.014;2023-04-02T01:54:59;6.38;;;1.35;;
38581;SDS011;24349;53.720;10.014;2023-04-02T01:57:26;5.90;;;1.40;;
38581;SDS011;24349;53.720;10.014;2023-04-02T01:59:52;5.68;;;1.42;;
38581;SDS011;24349;53.720;10.014;2023-04-02T02:02:18;6.75;;;1.60;;
38581;SDS011;24349;53.720;10.014;2023-04-02T02:04:45;5.32;;;1.50;;
38581;SDS011;24349;53.720;10.014;2023-04-02T02:07:13;7.82;;;1.65;;
38581;SDS011;24349;53.720;10.014;2023-04-02T02:09:41;5.63;;;1.42;;
38581;SDS011;24349;53.720;10.014;2023-04-02T02:12:08;9.02;;;1.63;;
38581;SDS011;24349;53.720;10.014;2023-04-02T02:14:37;5.47;;;1.38;;
38581;SDS011;24349;53.720;10.014;2023-04-02T02:17:03;8.45;;;1.60;;
38581;SDS011;24349;53.720;10.014;2023-04-02T02:19:37;6.68;;;1.42;;
38581;SDS011;24349;53.720;10.014;2023-04-02T02:24:46;10.32;;;1.83;;
38581;SDS011;24349;53.720;10.014;2023-04-02T02:29:48;5.32;;;1.92;;
38581;SDS011;24349;53.720;10.014;2023-04-02T02:32:18;6.55;;;1.60;;
38581;SDS011;24349;53.720;10.014;2023-04-02T02:34:52;5.47;;;1.63;;
38581;SDS011;24349;53.720;10.014;2023-04-02T02:37:42;6.47;;;1.30;;
38581;SDS011;24349;53.720;10.014;2023-04-02T02:40:13;6.05;;;1.65;;
38581;SDS011;24349;53.720;10.014;2023-04-02T02:42:48;7.93;;;2.25;;
38581;SDS011;24349;53.720;10.014;2023-04-02T02:45:17;4.57;;;1.60;;
38581;SDS011;24349;53.720;10.014;2023-04-02T02:47:48;6.73;;;1.90;;
38581;SDS011;24349;53.720;10.014;2023-04-02T02:50:18;6.15;;;1.85;;
38581;SDS011;24349;53.720;10.014;2023-04-02T02:52:54;4.90;;;1.90;;
38581;SDS011;24349;53.720;10.014;2023-04-02T02:55:23;5.93;;;1.40;;
38581;SDS011;24349;53.720;10.014;2023-04-02T02:58:35;4.45;;;1.38;;
38581;SDS011;24349;53.720;10.014;2023-04-02T03:03:13;7.55;;;2.30;;
38581;SDS011;24349;53.720;10.014;2023-04-02T03:05:43;6.20;;;1.50;;
38581;SDS011;24349;53.720;10.014;2023-04-02T03:10:50;7.63;;;1.70;;
38581;SDS011;24349;53.720;10.014;2023-04-02T03:13:30;5.75;;;1.73;;
38581;SDS011;24349;53.720;10.014;2023-04-02T03:16:01;5.85;;;1.73;;
38581;SDS011;24349;53.720;10.014;2023-04-02T03:24:01;4.20;;;1.38;;
38581;SDS011;24349;53.720;10.014;2023-04-02T03:29:04;6.40;;;1.73;;
38581;SDS011;24349;53.720;10.014;2023-04-02T03:31:36;6.95;;;1.65;;
38581;SDS011;24349;53.720;10.014;2023-04-02T03:43:02;6.75;;;1.88;;
38581;SDS011;24349;53.720;10.014;2023-04-02T03:45:52;7.25;;;1.50;;
38581;SDS011;24349;53.720;10.014;2023-04-02T03:48:23;5.32;;;1.70;;
38581;SDS011;24349;53.720;10.014;2023-04-02T03:53:43;8.65;;;1.90;;
38581;SDS011;24349;53.720;10.014;2023-04-02T03:56:21;11.35;;;2.20;;
38581;SDS011;24349;53.720;10.014;2023-04-02T03:59:02;6.32;;;1.70;;
38581;SDS011;24349;53.720;10.014;2023-04-02T04:01:54;5.15;;;1.50;;
38581;SDS011;24349;53.720;10.014;2023-04-02T04:04:26;5.68;;;1.60;;
38581;SDS011;24349;53.720;10.014;2023-04-02T04:06:53;8.27;;;1.58;;
38581;SDS011;24349;53.720;10.014;2023-04-02T04:09:30;5.85;;;1.55;;
38581;SDS011;24349;53.720;10.014;2023-04-02T04:14:44;5.70;;;1.42;;
38581;SDS011;24349;53.720;10.014;2023-04-02T04:17:16;4.85;;;1.52;;
38581;SDS011;24349;53.720;10.014;2023-04-02T04:20:08;4.63;;;1.30;;
38581;SDS011;24349;53.720;10.014;2023-04-02T04:22:52;5.50;;;1.42;;
38581;SDS011;24349;53.720;10.014;2023-04-02T04:25:26;4.78;;;1.30;;
38581;SDS011;24349;53.720;10.014;2023-04-02T04:30:31;5.50;;;1.35;;
38581;SDS011;24349;53.720;10.014;2023-04-02T04:33:23;6.80;;;1.55;;
38581;SDS011;24349;53.720;10.014;2023-04-02T04:35:59;3.55;;;1.15;;
38581;SDS011;24349;53.720;10.014;2023-04-02T04:38:34;7.00;;;1.30;;
38581;SDS011;24349;53.720;10.014;2023-04-02T04:41:04;7.00;;;1.20;;
38581;SDS011;24349;53.720;10.014;2023-04-02T04:43:44;8.63;;;1.45;;
38581;SDS011;24349;53.720;10.014;2023-04-02T04:46:17;6.65;;;1.67;;
38581;SDS011;24349;53.720;10.014;2023-04-02T04:51:45;7.53;;;1.52;;
38581;SDS011;24349;53.720;10.014;2023-04-02T04:54:15;6.50;;;1.40;;
38581;SDS011;24349;53.720;10.014;2023-04-02T04:56:46;7.50;;;1.48;;
38581;SDS011;24349;53.720;10.014;2023-04-02T05:02:17;7.28;;;1.25;;
38581;SDS011;24349;53.720;10.014;2023-04-02T05:04:49;4.95;;;1.20;;
38581;SDS011;24349;53.720;10.014;2023-04-02T05:07:17;5.07;;;1.45;;
38581;SDS011;24349;53.720;10.014;2023-04-02T05:12:58;7.28;;;1.40;;
38581;SDS011;24349;53.720;10.014;2023-04-02T05:15:38;5.95;;;1.30;;
38581;SDS011;24349;53.720;10.014;2023-04-02T05:21:23;5.20;;;1.35;;
38581;SDS011;24349;53.720;10.014;2023-04-02T05:26:41;5.05;;;1.17;;
38581;SDS011;24349;53.720;10.014;2023-04-02T05:29:13;4.88;;;1.30;;
38581;SDS011;24349;53.720;10.014;2023-04-02T05:36:52;5.40;;;1.75;;
38581;SDS011;24349;53.720;10.014;2023-04-02T05:39:21;5.97;;;1.27;;
38581;SDS011;24349;53.720;10.014;2023-04-02T05:41:48;5.60;;;1.48;;
38581;SDS011;24349;53.720;10.014;2023-04-02T05:44:33;6.07;;;1.10;;
38581;SDS011;24349;53.720;10.014;2023-04-02T05:47:24;5.93;;;1.58;;
38581;SDS011;24349;53.720;10.014;2023-04-02T05:52:29;4.65;;;1.10;;
38581;SDS011;24349;53.720;10.014;2023-04-02T05:57:42;5.15;;;1.10;;
38581;SDS011;24349;53.720;10.014;2023-04-02T06:00:17;7.00;;;2.08;;
38581;SDS011;24349;53.720;10.014;2023-04-02T06:02:50;7.55;;;1.20;;
38581;SDS011;24349;53.720;10.014;2023-04-02T06:05:28;4.30;;;1.00;;
38581;SDS011;24349;53.720;10.014;2023-04-02T06:08:03;3.05;;;1.00;;
38581;SDS011;24349;53.720;10.014;2023-04-02T06:10:36;6.20;;;1.40;;
38581;SDS011;24349;53.720;10.014;2023-04-02T06:13:13;3.70;;;1.08;;
38581;SDS011;24349;53.720;10.014;2023-04-02T06:15:42;8.10;;;1.27;;
38581;SDS011;24349;53.720;10.014;2023-04-02T06:18:13;5.32;;;1.20;;
38581;SDS011;24349;53.720;10.014;2023-04-02T06:20:42;5.20;;;1.45;;
38581;SDS011;24349;53.720;10.014;2023-04-02T06:23:18;5.97;;;1.10;;
38581;SDS011;24349;53.720;10.014;2023-04-02T06:26:01;4.43;;;0.93;;
38581;SDS011;24349;53.720;10.014;2023-04-02T06:31:17;6.05;;;1.50;;
38581;SDS011;24349;53.720;10.014;2023-04-02T06:34:03;6.18;;;1.40;;
38581;SDS011;24349;53.720;10.014;2023-04-02T06:36:31;3.70;;;1.10;;
38581;SDS011;24349;53.720;10.014;2023-04-02T06:38:58;3.47;;;1.20;;
38581;SDS011;24349;53.720;10.014;2023-04-02T06:41:31;3.80;;;1.35;;
38581;SDS011;24349;53.720;10.014;2023-04-02T06:43:58;4.57;;;0.90;;
38581;SDS011;24349;53.720;10.014;2023-04-02T06:46:33;6.05;;;1.85;;
38581;SDS011;24349;53.720;10.014;2023-04-02T06:49:13;5.70;;;1.23;;
38581;SDS011;24349;53.720;10.014;2023-04-02T06:51:47;6.45;;;1.40;;
38581;SDS011;24349;53.720;10.014;2023-04-02T06:54:17;6.28;;;1.50;;
38581;SDS011;24349;53.720;10.014;2023-04-02T06:56:45;4.25;;;1.30;;
38581;SDS011;24349;53.720;10.014;2023-04-02T06:59:15;6.38;;;1.20;;
38581;SDS011;24349;53.720;10.014;2023-04-02T07:01:43;6.05;;;1.38;;
38581;SDS011;24349;53.720;10.014;2023-04-02T07:04:27;4.65;;;1.30;;
38581;SDS011;24349;53.720;10.014;2023-04-02T07:06:53;4.45;;;1.20;;
38581;SDS011;24349;53.720;10.014;2023-04-02T07:09:19;5.72;;;1.60;;
38581;SDS011;24349;53.720;10.014;2023-04-02T07:11:45;4.78;;;1.20;;
38581;SDS011;24349;53.720;10.014;2023-04-02T07:14:14;5.85;;;1.30;;
38581;SDS011;24349;53.720;10.014;2023-04-02T07:16:40;4.75;;;1.20;;
38581;SDS011;24349;53.720;10.014;2023-04-02T07:19:12;6.63;;;1.40;;
38581;SDS011;24349;53.720;10.014;2023-04-02T07:21:44;4.70;;;1.25;;
38581;SDS011;24349;53.720;10.014;2023-04-02T07:24:10;4.72;;;1.10;;
38581;SDS011;24349;53.720;10.014;2023-04-02T07:26:36;5.07;;;1.15;;
38581;SDS011;24349;53.720;10.014;2023-04-02T07:29:02;4.18;;;1.05;;
38581;SDS011;24349;53.720;10.014;2023-04-02T07:31:31;3.70;;;0.98;;
38581;SDS011;24349;53.720;10.014;2023-04-02T07:33:57;4.32;;;1.00;;
38581;SDS011;24349;53.720;10.014;2023-04-02T07:36:25;6.03;;;1.60;;
38581;SDS011;24349;53.720;10.014;2023-04-02T07:38:52;3.15;;;1.10;;
38581;SDS011;24349;53.720;10.014;2023-04-02T07:41:17;4.10;;;1.20;;
38581;SDS011;24349;53.720;10.014;2023-04-02T07:43:43;7.88;;;1.65;;
38581;SDS011;24349;53.720;10.014;2023-04-02T07:46:10;4.35;;;1.10;;
38581;SDS011;24349;53.720;10.014;2023-04-02T07:48:39;4.45;;;1.27;;
38581;SDS011;24349;53.720;10.014;2023-04-02T07:51:05;3.70;;;1.15;;
38581;SDS011;24349;53.720;10.014;2023-04-02T07:53:49;3.25;;;0.98;;
38581;SDS011;24349;53.720;10.014;2023-04-02T07:56:19;4.05;;;1.10;;
38581;SDS011;24349;53.720;10.014;2023-04-02T07:58:45;4.40;;;1.10;;
38581;SDS011;24349;53.720;10.014;2023-04-02T08:01:19;12.07;;;1.40;;
38581;SDS011;24349;53.720;10.014;2023-04-02T08:03:53;4.35;;;1.23;;
38581;SDS011;24349;53.720;10.014;2023-04-02T08:06:20;3.85;;;1.10;;
38581;SDS011;24349;53.720;10.014;2023-04-02T08:08:48;4.25;;;1.20;;
38581;SDS011;24349;53.720;10.014;2023-04-02T08:11:13;2.50;;;0.90;;
38581;SDS011;24349;53.720;10.014;2023-04-02T08:13:39;3.58;;;1.10;;
38581;SDS011;24349;53.720;10.014;2023-04-02T08:16:05;4.05;;;1.08;;
38581;SDS011;24349;53.720;10.014;2023-04-02T08:18:32;4.78;;;1.30;;
38581;SDS011;24349;53.720;10.014;2023-04-02T08:20:58;4.78;;;1.10;;
38581;SDS011;24349;53.720;10.014;2023-04-02T08:23:24;3.95;;;1.20;;
38581;SDS011;24349;53.720;10.014;2023-04-02T08:25:51;4.43;;;1.00;;
38581;SDS011;24349;53.720;10.014;2023-04-02T08:28:17;4.18;;;1.10;;
38581;SDS011;24349;53.720;10.014;2023-04-02T08:30:43;3.35;;;1.10;;
38581;SDS011;24349;53.720;10.014;2023-04-02T08:33:09;5.35;;;1.20;;
38581;SDS011;24349;53.720;10.014;2023-04-02T08:35:35;5.07;;;1.10;;
38581;SDS011;24349;53.720;10.014;2023-04-02T08:38:01;4.10;;;1.35;;
38581;SDS011;24349;53.720;10.014;2023-04-02T08:40:37;3.97;;;1.10;;
38581;SDS011;24349;53.720;10.014;2023-04-02T08:43:27;4.57;;;1.20;;
38581;SDS011;24349;53.720;10.014;2023-04-02T08:48:37;4.55;;;1.25;;
38581;SDS011;24349;53.720;10.014;2023-04-02T08:51:07;4.88;;;1.30;;
38581;SDS011;24349;53.720;10.014;2023-04-02T08:53:50;4.97;;;1.13;;
38581;SDS011;24349;53.720;10.014;2023-04-02T08:56:22;3.65;;;1.05;;
38581;SDS011;24349;53.720;10.014;2023-04-02T08:58:54;3.90;;;1.05;;
38581;SDS011;24349;53.720;10.014;2023-04-02T09:01:26;5.13;;;1.20;;
38581;SDS011;24349;53.720;10.014;2023-04-02T09:03:59;3.92;;;0.95;;
38581;SDS011;24349;53.720;10.014;2023-04-02T09:06:27;5.32;;;1.40;;
38581;SDS011;24349;53.720;10.014;2023-04-02T09:08:53;3.50;;;1.23;;
38581;SDS011;24349;53.720;10.014;2023-04-02T09:11:22;4.05;;;1.00;;
38581;SDS011;24349;53.720;10.014;2023-04-02T09:13:55;6.63;;;1.25;;
38581;SDS011;24349;53.720;10.014;2023-04-02T09:19:19;3.92;;;1.20;;
38581;SDS011;24349;53.720;10.014;2023-04-02T09:21:51;3.00;;;1.20;;
38581;SDS011;24349;53.720;10.014;2023-04-02T09:24:30;3.28;;;1.10;;
38581;SDS011;24349;53.720;10.014;2023-04-02T09:26:57;4.38;;;1.30;;
38581;SDS011;24349;53.720;10.014;2023-04-02T09:29:25;3.83;;;1.20;;
38581;SDS011;24349;53.720;10.014;2023-04-02T09:43:31;4.78;;;1.15;;
38581;SDS011;24349;53.720;10.014;2023-04-02T09:51:23;2.95;;;1.02;;
38581;SDS011;24349;53.720;10.014;2023-04-02T09:56:34;4.20;;;0.75;;
38581;SDS011;24349;53.720;10.014;2023-04-02T09:59:05;3.88;;;1.10;;
38581;SDS011;24349;53.720;10.014;2023-04-02T10:06:55;2.63;;;0.85;;
38581;SDS011;24349;53.720;10.014;2023-04-02T10:09:41;4.13;;;1.13;;
38581;SDS011;24349;53.720;10.014;2023-04-02T10:12:09;4.95;;;1.45;;
38581;SDS011;24349;53.720;10.014;2023-04-02T10:14:39;4.55;;;1.00;;
38581;SDS011;24349;53.720;10.014;2023-04-02T10:17:19;3.78;;;1.00;;
38581;SDS011;24349;53.720;10.014;2023-04-02T10:19:57;4.43;;;1.20;;
38581;SDS011;24349;53.720;10.014;2023-04-02T10:22:39;2.95;;;1.00;;
38581;SDS011;24349;53.720;10.014;2023-04-02T10:25:16;2.42;;;1.08;;
38581;SDS011;24349;53.720;10.014;2023-04-02T10:27:50;4.85;;;1.15;;
38581;SDS011;24349;53.720;10.014;2023-04-02T10:30:51;5.18;;;1.20;;
38581;SDS011;24349;53.720;10.014;2023-04-02T10:33:41;3.83;;;1.20;;
38581;SDS011;24349;53.720;10.014;2023-04-02T10:36:19;5.00;;;1.30;;
38581;SDS011;24349;53.720;10.014;2023-04-02T10:47:15;3.45;;;1.05;;
38581;SDS011;24349;53.720;10.014;2023-04-02T10:52:30;4.10;;;1.08;;
38581;SDS011;24349;53.720;10.014;2023-04-02T10:55:26;2.85;;;0.90;;
38581;SDS011;24349;53.720;10.014;2023-04-02T10:57:58;5.05;;;1.20;;
38581;SDS011;24349;53.720;10.014;2023-04-02T11:00:33;3.85;;;1.20;;
38581;SDS011;24349;53.720;10.014;2023-04-02T11:03:03;3.40;;;0.95;;
38581;SDS011;24349;53.720;10.014;2023-04-02T11:05:43;4.07;;;1.20;;
38581;SDS011;24349;53.720;10.014;2023-04-02T11:11:02;4.25;;;1.10;;
38581;SDS011;24349;53.720;10.014;2023-04-02T11:16:21;2.70;;;0.95;;
38581;SDS011;24349;53.720;10.014;2023-04-02T11:42:56;3.58;;;0.90;;
38581;SDS011;24349;53.720;10.014;2023-04-02T11:50:41;3.78;;;0.98;;
38581;SDS011;24349;53.720;10.014;2023-04-02T11:55:36;4.55;;;1.00;;
38581;SDS011;24349;53.720;10.014;2023-04-02T12:01:28;3.50;;;1.10;;
38581;SDS011;24349;53.720;10.014;2023-04-02T12:04:27;3.10;;;0.90;;
38581;SDS011;24349;53.720;10.014;2023-04-02T12:09:46;2.25;;;0.82;;
38581;SDS011;24349;53.720;10.014;2023-04-02T12:14:58;3.38;;;0.90;;
38581;SDS011;24349;53.720;10.014;2023-04-02T12:19:59;1.75;;;0.70;;
38581;SDS011;24349;53.720;10.014;2023-04-02T12:22:32;2.78;;;0.80;;
38581;SDS011;24349;53.720;10.014;2023-04-02T12:25:31;3.08;;;0.90;;
38581;SDS011;24349;53.720;10.014;2023-04-02T12:30:38;3.10;;;1.02;;
38581;SDS011;24349;53.720;10.014;2023-04-02T12:35:46;2.53;;;0.80;;
38581;SDS011;24349;53.720;10.014;2023-04-02T12:38:21;2.47;;;0.77;;
38581;SDS011;24349;53.720;10.014;2023-04-02T12:40:55;2.72;;;0.80;;
38581;SDS011;24349;53.720;10.014;2023-04-02T12:43:28;1.77;;;0.73;;
38581;SDS011;24349;53.720;10.014;2023-04-02T12:45:59;3.45;;;1.00;;
38581;SDS011;24349;53.720;10.014;2023-04-02T12:50:53;2.72;;;0.90;;
38581;SDS011;24349;53.720;10.014;2023-04-02T12:53:21;3.00;;;0.77;;
38581;SDS011;24349;53.720;10.014;2023-04-02T12:56:17;1.70;;;0.65;;
38581;SDS011;24349;53.720;10.014;2023-04-02T12:58:50;1.63;;;0.70;;
38581;SDS011;24349;53.720;10.014;2023-04-02T13:01:21;2.40;;;0.90;;
38581;SDS011;24349;53.720;10.014;2023-04-02T13:04:05;3.30;;;0.80;;
38581;SDS011;24349;53.720;10.014;2023-04-02T13:06:32;2.03;;;0.70;;
38581;SDS011;24349;53.720;10.014;2023-04-02T13:09:00;2.30;;;0.70;;
38581;SDS011;24349;53.720;10.014;2023-04-02T13:11:35;1.52;;;0.68;;
38581;SDS011;24349;53.720;10.014;2023-04-02T13:14:15;2.95;;;0.90;;
38581;SDS011;24349;53.720;10.014;2023-04-02T13:16:44;2.83;;;0.85;;
38581;SDS011;24349;53.720;10.014;2023-04-02T13:19:16;1.88;;;0.70;;
38581;SDS011;24349;53.720;10.014;2023-04-02T13:21:46;2.83;;;0.90;;
38581;SDS011;24349;53.720;10.014;2023-04-02T13:24:19;3.15;;;0.98;;
38581;SDS011;24349;53.720;10.014;2023-04-02T13:26:47;2.33;;;0.85;;
38581;SDS011;24349;53.720;10.014;2023-04-02T13:31:57;1.52;;;0.70;;
38581;SDS011;24349;53.720;10.014;2023-04-02T13:34:29;2.53;;;0.80;;
38581;SDS011;24349;53.720;10.014;2023-04-02T13:36:56;3.47;;;0.90;;
38581;SDS011;24349;53.720;10.014;2023-04-02T13:39:22;2.88;;;0.80;;
38581;SDS011;24349;53.720;10.014;2023-04-02T13:41:50;2.00;;;0.82;;
38581;SDS011;24349;53.720;10.014;2023-04-02T13:46:49;3.40;;;0.90;;
38581;SDS011;24349;53.720;10.014;2023-04-02T13:49:16;2.53;;;0.80;;
38581;SDS011;24349;53.720;10.014;2023-04-02T13:51:46;1.92;;;0.63;;
38581;SDS011;24349;53.720;10.014;2023-04-02T13:54:15;2.95;;;0.70;;
38581;SDS011;24349;53.720;10.014;2023-04-02T13:56:45;2.07;;;0.60;;
38581;SDS011;24349;53.720;10.014;2023-04-02T13:59:11;1.75;;;0.75;;
38581;SDS011;24349;53.720;10.014;2023-04-02T14:01:37;2.63;;;0.80;;
38581;SDS011;24349;53.720;10.014;2023-04-02T14:04:03;2.33;;;0.73;;
38581;SDS011;24349;53.720;10.014;2023-04-02T14:06:46;2.38;;;0.70;;
38581;SDS011;24349;53.720;10.014;2023-04-02T14:27:04;2.38;;;0.90;;
38581;SDS011;24349;53.720;10.014;2023-04-02T14:35:23;2.38;;;0.68;;
38581;SDS011;24349;53.720;10.014;2023-04-02T14:43:16;3.35;;;1.00;;
38581;SDS011;24349;53.720;10.014;2023-04-02T14:50:57;3.40;;;1.30;;
38581;SDS011;24349;53.720;10.014;2023-04-02T14:53:31;2.92;;;0.95;;
38581;SDS011;24349;53.720;10.014;2023-04-02T14:56:01;3.40;;;1.17;;
38581;SDS011;24349;53.720;10.014;2023-04-02T14:58:32;4.47;;;1.23;;
38581;SDS011;24349;53.720;10.014;2023-04-02T15:01:02;2.35;;;1.00;;
38581;SDS011;24349;53.720;10.014;2023-04-02T15:03:39;5.00;;;1.00;;
38581;SDS011;24349;53.720;10.014;2023-04-02T15:06:19;2.60;;;0.90;;
38581;SDS011;24349;53.720;10.014;2023-04-02T15:11:43;2.83;;;0.93;;
38581;SDS011;24349;53.720;10.014;2023-04-02T15:14:27;2.85;;;0.90;;
38581;SDS011;24349;53.720;10.014;2023-04-02T15:16:59;3.97;;;1.05;;
38581;SDS011;24349;53.720;10.014;2023-04-02T15:19:25;3.90;;;1.38;;
38581;SDS011;24349;53.720;10.014;2023-04-02T15:29:40;3.10;;;0.90;;
38581;SDS011;24349;53.720;10.014;2023-04-02T15:32:12;2.72;;;1.13;;
38581;SDS011;24349;53.720;10.014;2023-04-02T15:35:35;3.78;;;0.90;;
38581;SDS011;24349;53.720;10.014;2023-04-02T15:37:38;3.28;;;1.08;;
38581;SDS011;24349;53.720;10.014;2023-04-02T15:42:45;4.88;;;1.20;;
38581;SDS011;24349;53.720;10.014;2023-04-02T15:45:32;2.97;;;1.02;;
38581;SDS011;24349;53.720;10.014;2023-04-02T15:48:19;2.58;;;1.00;;
38581;SDS011;24349;53.720;10.014;2023-04-02T15:51:10;2.63;;;0.88;;
38581;SDS011;24349;53.720;10.014;2023-04-02T15:56:29;2.35;;;0.85;;
38581;SDS011;24349;53.720;10.014;2023-04-02T15:59:34;2.88;;;0.90;;
38581;SDS011;24349;53.720;10.014;2023-04-02T16:02:41;2.85;;;0.95;;
38581;SDS011;24349;53.720;10.014;2023-04-02T16:05:34;2.45;;;0.85;;
38581;SDS011;24349;53.720;10.014;2023-04-02T16:10:39;4.15;;;1.35;;
38581;SDS011;24349;53.720;10.014;2023-04-02T16:13:18;4.45;;;1.10;;
38581;SDS011;24349;53.720;10.014;2023-04-02T16:16:17;2.65;;;1.20;;
38581;SDS011;24349;53.720;10.014;2023-04-02T16:21:23;2.70;;;1.10;;
38581;SDS011;24349;53.720;10.014;2023-04-02T16:23:53;2.65;;;0.98;;
38581;SDS011;24349;53.720;10.014;2023-04-02T16:32:18;3.72;;;1.10;;
38581;SDS011;24349;53.720;10.014;2023-04-02T16:34:52;3.88;;;1.20;;
38581;SDS011;24349;53.720;10.014;2023-04-02T16:51:19;5.40;;;1.10;;
38581;SDS011;24349;53.720;10.014;2023-04-02T16:54:18;3.45;;;1.23;;
38581;SDS011;24349;53.720;10.014;2023-04-02T17:08:26;3.85;;;1.17;;
38581;SDS011;24349;53.720;10.014;2023-04-02T17:11:00;5.40;;;1.40;;
38581;SDS011;24349;53.720;10.014;2023-04-02T17:18:36;5.40;;;1.45;;
38581;SDS011;24349;53.720;10.014;2023-04-02T17:21:05;5.20;;;1.17;;
38581;SDS011;24349;53.720;10.014;2023-04-02T17:23:41;4.88;;;1.10;;
38581;SDS011;24349;53.720;10.014;2023-04-02T17:26:13;3.75;;;1.20;;
38581;SDS011;24349;53.720;10.014;2023-04-02T17:28:40;5.90;;;1.75;;
38581;SDS011;24349;53.720;10.014;2023-04-02T17:31:18;5.07;;;1.25;;
38581;SDS011;24349;53.720;10.014;2023-04-02T17:33:46;3.97;;;1.33;;
38581;SDS011;24349;53.720;10.014;2023-04-02T17:36:30;7.97;;;1.63;;
38581;SDS011;24349;53.720;10.014;2023-04-02T17:48:04;5.63;;;1.60;;
38581;SDS011;24349;53.720;10.014;2023-04-02T17:51:00;4.25;;;1.40;;
38581;SDS011;24349;53.720;10.014;2023-04-02T17:53:36;4.30;;;1.52;;
38581;SDS011;24349;53.720;10.014;2023-04-02T17:56:18;6.20;;;1.58;;
38581;SDS011;24349;53.720;10.014;2023-04-02T18:01:56;8.02;;;1.80;;
38581;SDS011;24349;53.720;10.014;2023-04-02T18:15:37;6.25;;;2.08;;
38581;SDS011;24349;53.720;10.014;2023-04-02T18:18:16;4.95;;;1.42;;
38581;SDS011;24349;53.720;10.014;2023-04-02T18:20:52;7.90;;;1.70;;
38581;SDS011;24349;53.720;10.014;2023-04-02T18:34:38;3.97;;;1.50;;
38581;SDS011;24349;53.720;10.014;2023-04-02T18:48:53;3.75;;;1.42;;
38581;SDS011;24349;53.720;10.014;2023-04-02T18:51:25;3.42;;;1.30;;
38581;SDS011;24349;53.720;10.014;2023-04-02T18:54:03;5.00;;;1.67;;
38581;SDS011;24349;53.720;10.014;2023-04-02T18:56:35;3.97;;;1.50;;
38581;SDS011;24349;53.720;10.014;2023-04-02T19:01:55;6.35;;;2.25;;
38581;SDS011;24349;53.720;10.014;2023-04-02T19:04:30;5.82;;;1.60;;
38581;SDS011;24349;53.720;10.014;2023-04-02T19:07:07;5.15;;;1.73;;
38581;SDS011;24349;53.720;10.014;2023-04-02T19:09:43;5.60;;;1.58;;
38581;SDS011;24349;53.720;10.014;2023-04-02T19:14:46;5.97;;;2.00;;
38581;SDS011;24349;53.720;10.014;2023-04-02T19:17:19;6.00;;;1.98;;
38581;SDS011;24349;53.720;10.014;2023-04-02T19:25:34;7.47;;;2.53;;
38581;SDS011;24349;53.720;10.014;2023-04-02T19:28:29;7.20;;;2.50;;
38581;SDS011;24349;53.720;10.014;2023-04-02T19:33:47;5.82;;;2.03;;
38581;SDS011;24349;53.720;10.014;2023-04-02T19:36:24;5.47;;;2.00;;
38581;SDS011;24349;53.720;10.014;2023-04-02T19:39:23;5.68;;;1.80;;
38581;SDS011;24349;53.720;10.014;2023-04-02T19:45:01;4.45;;;1.60;;
38581;SDS011;24349;53.720;10.014;2023-04-02T19:47:27;5.38;;;1.60;;
38581;SDS011;24349;53.720;10.014;2023-04-02T19:49:53;7.57;;;1.88;;
38581;SDS011;24349;53.720;10.014;2023-04-02T19:52:19;6.38;;;1.85;;
38581;SDS011;24349;53.720;10.014;2023-04-02T19:54:45;6.30;;;2.10;;
38581;SDS011;24349;53.720;10.014;2023-04-02T19:57:12;5.53;;;1.85;;
38581;SDS011;24349;53.720;10.014;2023-04-02T19:59:39;6.90;;;1.90;;
38581;SDS011;24349;53.720;10.014;2023-04-02T20:02:05;8.30;;;2.42;;
38581;SDS011;24349;53.720;10.014;2023-04-02T20:04:34;6.63;;;2.13;;
38581;SDS011;24349;53.720;10.014;2023-04-02T20:07:00;9.20;;;2.63;;
38581;SDS011;24349;53.720;10.014;2023-04-02T20:09:26;6.63;;;2.00;;
38581;SDS011;24349;53.720;10.014;2023-04-02T20:11:53;8.55;;;2.30;;
38581;SDS011;24349;53.720;10.014;2023-04-02T20:14:18;6.28;;;2.17;;
38581;SDS011;24349;53.720;10.014;2023-04-02T20:16:44;8.85;;;2.22;;
38581;SDS011;24349;53.720;10.014;2023-04-02T20:19:10;10.70;;;2.35;;
38581;SDS011;24349;53.720;10.014;2023-04-02T20:21:35;5.20;;;2.08;;
38581;SDS011;24349;53.720;10.014;2023-04-02T20:24:05;4.80;;;1.98;;
38581;SDS011;24349;53.720;10.014;2023-04-02T20:26:33;7.25;;;2.17;;
38581;SDS011;24349;53.720;10.014;2023-04-02T20:28:59;7.72;;;2.20;;
38581;SDS011;24349;53.720;10.014;2023-04-02T20:31:25;6.82;;;2.17;;
38581;SDS011;24349;53.720;10.014;2023-04-02T20:33:56;7.70;;;2.20;;
38581;SDS011;24349;53.720;10.014;2023-04-02T20:36:23;6.32;;;1.80;;
38581;SDS011;24349;53.720;10.014;2023-04-02T20:38:49;7.50;;;2.17;;
38581;SDS011;24349;53.720;10.014;2023-04-02T20:41:16;6.30;;;1.80;;
38581;SDS011;24349;53.720;10.014;2023-04-02T20:43:43;7.05;;;2.00;;
38581;SDS011;24349;53.720;10.014;2023-04-02T20:46:09;7.10;;;2.58;;
38581;SDS011;24349;53.720;10.014;2023-04-02T20:48:36;6.80;;;2.22;;
38581;SDS011;24349;53.720;10.014;2023-04-02T20:51:03;7.82;;;2.35;;
38581;SDS011;24349;53.720;10.014;2023-04-02T20:53:31;7.43;;;2.28;;
38581;SDS011;24349;53.720;10.014;2023-04-02T20:58:28;7.30;;;2.20;;